PAPB

Details ICAO PAPB (PBV)
Name ST GEORGE
Region USA (Alaska)
Timezone America/Adak (UTC-9.0)
Plans Departing 10
Arriving 5
Stats Elevation 125 ft / 38 m (AMSL)
Location 56.577351° -169.663736°
Runways 1
Magnetic Variation 7.706° E
Sunrise 2018-05-21 14:52:46 UTC / 2018-05-21 05:52:46 Local
Sunset 2018-05-22 07:40:39 UTC / 2018-05-21 22:40:39 Local
Advertisement - Login to hide

Runways

ID Width Length Bearing (true) Bearing (mag) Surface Threshold Offset Overrun Length
11 150 ft / 46 m 4,987 ft / 1,520 m 118.32° 110.61° Gravel 0 ft / 0 m 0 ft / 0 m
29 150 ft / 46 m 4,987 ft / 1,520 m 298.34° 290.63° Gravel 0 ft / 0 m 0 ft / 0 m

Approach Navaids

Runway Type Ident Frequency Range Bearing (true) Bearing (mag) Slope Elevation
11 Localiser IPBV 110.10 MHz 18 nm / 33 km 118.34° 110.64° - 119 ft / 36 m (AMSL)
11 Glidescope IPBV 110.10 MHz 10 nm / 19 km 118.33° 110.63° 3.60° 109 ft / 33 m (AMSL)

Map

Weather


0- 5 10 15 20 25 30 35+ Temperature / ° C

Clouds and Precipitation
Forecast for 2018-05-21 18:00 UTC. Updated 4 hours ago

Ground ~20,000 ft ~40,000 ft Winds

METAR

PAPB 212053Z AUTO 33016KT 10SM FEW016 OVC026 04/01 A2984 RMK AO2 SLP092 T00390006 50005 TSNO $

TAF

Not found

Frequencies

Recorded 135.45 MHz ASOS
Unicom 122.80 MHz CTAF
Warning: Do not use this data for real-world aviation or navigation. No guarantee of current accuracy is given.